sensor_id;sensor_type;location;lat;lon;timestamp;temperature;humidity
3758;DHT22;1894;51.038;13.692;2023-05-07T00:02:07;11.30;99.90
3758;DHT22;1894;51.038;13.692;2023-05-07T00:04:34;11.20;99.90
3758;DHT22;1894;51.038;13.692;2023-05-07T00:07:04;11.20;99.90
3758;DHT22;1894;51.038;13.692;2023-05-07T00:09:32;11.10;99.90
3758;DHT22;1894;51.038;13.692;2023-05-07T00:11:59;11.10;99.90
3758;DHT22;1894;51.038;13.692;2023-05-07T00:14:26;11.10;99.90
3758;DHT22;1894;51.038;13.692;2023-05-07T00:16:53;11.10;99.90
3758;DHT22;1894;51.038;13.692;2023-05-07T00:19:20;11.00;99.90
3758;DHT22;1894;51.038;13.692;2023-05-07T00:21:48;10.90;99.90
3758;DHT22;1894;51.038;13.692;2023-05-07T00:24:15;10.90;99.90
3758;DHT22;1894;51.038;13.692;2023-05-07T00:26:42;10.90;99.90
3758;DHT22;1894;51.038;13.692;2023-05-07T00:29:09;10.90;99.90
3758;DHT22;1894;51.038;13.692;2023-05-07T00:31:36;10.90;99.90
3758;DHT22;1894;51.038;13.692;2023-05-07T00:34:03;10.90;99.90
3758;DHT22;1894;51.038;13.692;2023-05-07T00:36:31;10.80;99.90
3758;DHT22;1894;51.038;13.692;2023-05-07T00:38:59;10.90;99.90
3758;DHT22;1894;51.038;13.692;2023-05-07T00:41:29;10.90;99.90
3758;DHT22;1894;51.038;13.692;2023-05-07T00:43:57;10.90;99.90
3758;DHT22;1894;51.038;13.692;2023-05-07T00:46:25;10.90;99.90
3758;DHT22;1894;51.038;13.692;2023-05-07T00:48:53;11.00;99.90
3758;DHT22;1894;51.038;13.692;2023-05-07T00:51:21;11.00;99.90
3758;DHT22;1894;51.038;13.692;2023-05-07T00:53:48;11.00;99.90
3758;DHT22;1894;51.038;13.692;2023-05-07T00:56:16;11.00;99.90
3758;DHT22;1894;51.038;13.692;2023-05-07T00:58:44;11.00;99.90
3758;DHT22;1894;51.038;13.692;2023-05-07T01:01:11;11.00;99.90
3758;DHT22;1894;51.038;13.692;2023-05-07T01:03:38;11.00;99.90
3758;DHT22;1894;51.038;13.692;2023-05-07T01:06:07;10.90;99.90
3758;DHT22;1894;51.038;13.692;2023-05-07T01:08:35;10.90;99.90
3758;DHT22;1894;51.038;13.692;2023-05-07T01:11:03;10.90;99.90
3758;DHT22;1894;51.038;13.692;2023-05-07T01:13:31;10.90;99.90
3758;DHT22;1894;51.038;13.692;2023-05-07T01:15:58;10.90;99.90
3758;DHT22;1894;51.038;13.692;2023-05-07T01:18:26;10.90;99.90
3758;DHT22;1894;51.038;13.692;2023-05-07T01:20:54;10.90;99.90
3758;DHT22;1894;51.038;13.692;2023-05-07T01:23:23;10.90;99.90
3758;DHT22;1894;51.038;13.692;2023-05-07T01:25:52;10.90;99.90
3758;DHT22;1894;51.038;13.692;2023-05-07T01:28:21;10.90;99.90
3758;DHT22;1894;51.038;13.692;2023-05-07T01:30:55;10.90;99.90
3758;DHT22;1894;51.038;13.692;2023-05-07T01:33:30;10.90;99.90
3758;DHT22;1894;51.038;13.692;2023-05-07T01:35:59;10.90;99.90
3758;DHT22;1894;51.038;13.692;2023-05-07T01:38:29;11.00;99.90
3758;DHT22;1894;51.038;13.692;2023-05-07T01:40:57;10.90;99.90
3758;DHT22;1894;51.038;13.692;2023-05-07T01:43:25;11.00;99.90
3758;DHT22;1894;51.038;13.692;2023-05-07T01:45:52;11.10;99.90
3758;DHT22;1894;51.038;13.692;2023-05-07T01:48:20;11.10;99.90
3758;DHT22;1894;51.038;13.692;2023-05-07T01:50:48;11.10;99.90
3758;DHT22;1894;51.038;13.692;2023-05-07T01:53:15;11.10;99.90
3758;DHT22;1894;51.038;13.692;2023-05-07T01:55:43;11.10;99.90
3758;DHT22;1894;51.038;13.692;2023-05-07T01:58:10;11.10;99.90
3758;DHT22;1894;51.038;13.692;2023-05-07T02:00:37;11.10;99.90
3758;DHT22;1894;51.038;13.692;2023-05-07T02:03:07;11.10;99.90
3758;DHT22;1894;51.038;13.692;2023-05-07T02:05:51;11.10;99.90
3758;DHT22;1894;51.038;13.692;2023-05-07T02:08:27;11.10;99.90
3758;DHT22;1894;51.038;13.692;2023-05-07T02:10:54;11.10;99.90
3758;DHT22;1894;51.038;13.692;2023-05-07T02:13:22;11.10;99.90
3758;DHT22;1894;51.038;13.692;2023-05-07T02:15:51;11.10;99.90
3758;DHT22;1894;51.038;13.692;2023-05-07T02:18:18;11.10;99.90
3758;DHT22;1894;51.038;13.692;2023-05-07T02:20:45;11.00;99.90
3758;DHT22;1894;51.038;13.692;2023-05-07T02:23:13;11.10;99.90
3758;DHT22;1894;51.038;13.692;2023-05-07T02:25:40;11.00;99.90
3758;DHT22;1894;51.038;13.692;2023-05-07T02:28:07;11.00;99.90
3758;DHT22;1894;51.038;13.692;2023-05-07T02:30:49;11.10;99.90
3758;DHT22;1894;51.038;13.692;2023-05-07T02:33:18;11.10;99.90
3758;DHT22;1894;51.038;13.692;2023-05-07T02:35:46;11.00;99.90
3758;DHT22;1894;51.038;13.692;2023-05-07T02:38:15;11.00;99.90
3758;DHT22;1894;51.038;13.692;2023-05-07T02:40:43;11.10;99.90
3758;DHT22;1894;51.038;13.692;2023-05-07T02:43:10;11.10;99.90
3758;DHT22;1894;51.038;13.692;2023-05-07T02:45:41;11.10;99.90
3758;DHT22;1894;51.038;13.692;2023-05-07T02:48:10;11.10;99.90
3758;DHT22;1894;51.038;13.692;2023-05-07T02:50:37;11.00;99.90
3758;DHT22;1894;51.038;13.692;2023-05-07T02:53:05;11.00;99.90
3758;DHT22;1894;51.038;13.692;2023-05-07T02:55:32;10.90;99.90
3758;DHT22;1894;51.038;13.692;2023-05-07T02:57:59;10.90;99.90
3758;DHT22;1894;51.038;13.692;2023-05-07T03:00:26;10.80;99.90
3758;DHT22;1894;51.038;13.692;2023-05-07T03:03:04;10.80;99.90
3758;DHT22;1894;51.038;13.692;2023-05-07T03:05:32;10.80;99.90
3758;DHT22;1894;51.038;13.692;2023-05-07T03:07:59;10.70;99.90
3758;DHT22;1894;51.038;13.692;2023-05-07T03:10:26;10.80;99.90
3758;DHT22;1894;51.038;13.692;2023-05-07T03:12:53;10.80;99.90
3758;DHT22;1894;51.038;13.692;2023-05-07T03:15:20;10.80;99.90
3758;DHT22;1894;51.038;13.692;2023-05-07T03:17:48;10.80;99.90
3758;DHT22;1894;51.038;13.692;2023-05-07T03:20:15;10.80;99.90
3758;DHT22;1894;51.038;13.692;2023-05-07T03:22:43;10.80;99.90
3758;DHT22;1894;51.038;13.692;2023-05-07T03:25:10;10.80;99.90
3758;DHT22;1894;51.038;13.692;2023-05-07T03:27:37;10.80;99.90
3758;DHT22;1894;51.038;13.692;2023-05-07T03:30:05;10.80;99.90
3758;DHT22;1894;51.038;13.692;2023-05-07T03:32:34;10.80;99.90
3758;DHT22;1894;51.038;13.692;2023-05-07T03:35:05;10.80;99.90
3758;DHT22;1894;51.038;13.692;2023-05-07T03:37:33;10.80;99.90
3758;DHT22;1894;51.038;13.692;2023-05-07T03:40:00;10.70;99.90
3758;DHT22;1894;51.038;13.692;2023-05-07T03:42:29;10.80;99.90
3758;DHT22;1894;51.038;13.692;2023-05-07T03:44:56;10.70;99.90
3758;DHT22;1894;51.038;13.692;2023-05-07T03:47:23;10.70;99.90
3758;DHT22;1894;51.038;13.692;2023-05-07T03:49:51;10.70;99.90
3758;DHT22;1894;51.038;13.692;2023-05-07T03:52:22;10.70;99.90
3758;DHT22;1894;51.038;13.692;2023-05-07T03:54:55;10.70;99.90
3758;DHT22;1894;51.038;13.692;2023-05-07T03:57:22;10.70;99.90
3758;DHT22;1894;51.038;13.692;2023-05-07T03:59:49;10.70;99.90
3758;DHT22;1894;51.038;13.692;2023-05-07T04:02:17;10.80;99.90
3758;DHT22;1894;51.038;13.692;2023-05-07T04:04:45;10.80;99.90
3758;DHT22;1894;51.038;13.692;2023-05-07T04:07:12;10.60;99.90
3758;DHT22;1894;51.038;13.692;2023-05-07T04:09:43;10.60;99.90
3758;DHT22;1894;51.038;13.692;2023-05-07T04:12:10;10.50;99.90
3758;DHT22;1894;51.038;13.692;2023-05-07T04:14:37;10.50;99.90
3758;DHT22;1894;51.038;13.692;2023-05-07T04:17:05;10.60;99.90
3758;DHT22;1894;51.038;13.692;2023-05-07T04:19:34;10.50;99.90
3758;DHT22;1894;51.038;13.692;2023-05-07T04:22:01;10.70;99.90
3758;DHT22;1894;51.038;13.692;2023-05-07T04:24:31;10.80;99.90
3758;DHT22;1894;51.038;13.692;2023-05-07T04:27:01;10.70;99.90
3758;DHT22;1894;51.038;13.692;2023-05-07T04:29:28;10.60;99.90
3758;DHT22;1894;51.038;13.692;2023-05-07T04:31:56;10.50;99.90
3758;DHT22;1894;51.038;13.692;2023-05-07T04:34:23;10.60;99.90
3758;DHT22;1894;51.038;13.692;2023-05-07T04:36:51;10.70;99.90
3758;DHT22;1894;51.038;13.692;2023-05-07T04:39:18;10.60;99.90
3758;DHT22;1894;51.038;13.692;2023-05-07T04:41:47;10.60;99.90
3758;DHT22;1894;51.038;13.692;2023-05-07T04:44:15;10.60;99.90
3758;DHT22;1894;51.038;13.692;2023-05-07T04:46:45;10.60;99.90
3758;DHT22;1894;51.038;13.692;2023-05-07T04:49:12;10.60;99.90
3758;DHT22;1894;51.038;13.692;2023-05-07T04:51:39;10.60;99.90
3758;DHT22;1894;51.038;13.692;2023-05-07T04:54:12;10.70;99.90
3758;DHT22;1894;51.038;13.692;2023-05-07T04:56:39;10.70;99.90
3758;DHT22;1894;51.038;13.692;2023-05-07T04:59:06;10.70;99.90
3758;DHT22;1894;51.038;13.692;2023-05-07T05:01:33;10.70;99.90
3758;DHT22;1894;51.038;13.692;2023-05-07T05:04:01;10.80;99.90
3758;DHT22;1894;51.038;13.692;2023-05-07T05:06:29;10.80;99.90
3758;DHT22;1894;51.038;13.692;2023-05-07T05:08:56;10.80;99.90
3758;DHT22;1894;51.038;13.692;2023-05-07T05:11:24;10.90;99.90
3758;DHT22;1894;51.038;13.692;2023-05-07T05:13:52;10.90;99.90
3758;DHT22;1894;51.038;13.692;2023-05-07T05:16:20;10.90;99.90
3758;DHT22;1894;51.038;13.692;2023-05-07T05:18:48;11.00;99.90
3758;DHT22;1894;51.038;13.692;2023-05-07T05:21:18;11.10;99.90
3758;DHT22;1894;51.038;13.692;2023-05-07T05:23:47;11.20;99.90
3758;DHT22;1894;51.038;13.692;2023-05-07T05:26:18;11.10;99.90
3758;DHT22;1894;51.038;13.692;2023-05-07T05:28:45;11.20;99.90
3758;DHT22;1894;51.038;13.692;2023-05-07T05:31:14;11.30;99.90
3758;DHT22;1894;51.038;13.692;2023-05-07T05:33:42;11.30;99.90
3758;DHT22;1894;51.038;13.692;2023-05-07T05:36:10;11.20;99.90
3758;DHT22;1894;51.038;13.692;2023-05-07T05:38:38;11.20;99.90
3758;DHT22;1894;51.038;13.692;2023-05-07T05:41:06;11.20;99.90
3758;DHT22;1894;51.038;13.692;2023-05-07T05:43:34;11.30;99.90
3758;DHT22;1894;51.038;13.692;2023-05-07T05:46:01;11.30;99.90
3758;DHT22;1894;51.038;13.692;2023-05-07T05:48:29;11.40;99.90
3758;DHT22;1894;51.038;13.692;2023-05-07T05:51:00;11.40;99.90
3758;DHT22;1894;51.038;13.692;2023-05-07T05:53:27;11.40;99.90
3758;DHT22;1894;51.038;13.692;2023-05-07T05:55:54;11.40;99.90
3758;DHT22;1894;51.038;13.692;2023-05-07T05:58:21;11.30;99.90
3758;DHT22;1894;51.038;13.692;2023-05-07T06:00:54;11.50;99.90
3758;DHT22;1894;51.038;13.692;2023-05-07T06:03:24;11.40;99.90
3758;DHT22;1894;51.038;13.692;2023-05-07T06:05:51;11.30;99.90
3758;DHT22;1894;51.038;13.692;2023-05-07T06:08:21;11.30;99.90
3758;DHT22;1894;51.038;13.692;2023-05-07T06:10:48;11.20;99.90
3758;DHT22;1894;51.038;13.692;2023-05-07T06:13:15;11.00;99.90
3758;DHT22;1894;51.038;13.692;2023-05-07T06:15:43;11.10;99.90
3758;DHT22;1894;51.038;13.692;2023-05-07T06:18:12;10.80;99.90
3758;DHT22;1894;51.038;13.692;2023-05-07T06:20:40;10.90;99.90
3758;DHT22;1894;51.038;13.692;2023-05-07T06:23:13;11.10;99.90
3758;DHT22;1894;51.038;13.692;2023-05-07T06:25:48;11.00;99.90
3758;DHT22;1894;51.038;13.692;2023-05-07T06:28:18;11.00;99.90
3758;DHT22;1894;51.038;13.692;2023-05-07T06:30:46;10.90;99.90
3758;DHT22;1894;51.038;13.692;2023-05-07T06:33:14;10.80;99.90
3758;DHT22;1894;51.038;13.692;2023-05-07T06:35:41;11.00;99.90
3758;DHT22;1894;51.038;13.692;2023-05-07T06:38:09;11.10;99.90
3758;DHT22;1894;51.038;13.692;2023-05-07T06:40:36;11.20;99.90
3758;DHT22;1894;51.038;13.692;2023-05-07T06:43:03;11.20;99.90
3758;DHT22;1894;51.038;13.692;2023-05-07T06:45:41;11.30;99.90
3758;DHT22;1894;51.038;13.692;2023-05-07T06:48:09;11.30;99.90
3758;DHT22;1894;51.038;13.692;2023-05-07T06:50:54;11.40;99.90
3758;DHT22;1894;51.038;13.692;2023-05-07T06:53:25;11.40;99.90
3758;DHT22;1894;51.038;13.692;2023-05-07T06:55:54;11.30;99.90
3758;DHT22;1894;51.038;13.692;2023-05-07T06:58:22;11.30;99.90
3758;DHT22;1894;51.038;13.692;2023-05-07T07:00:49;11.30;99.90
3758;DHT22;1894;51.038;13.692;2023-05-07T07:03:16;11.30;99.90
3758;DHT22;1894;51.038;13.692;2023-05-07T07:05:46;11.30;99.90
3758;DHT22;1894;51.038;13.692;2023-05-07T07:08:13;11.40;99.90
3758;DHT22;1894;51.038;13.692;2023-05-07T07:10:42;11.60;99.90
3758;DHT22;1894;51.038;13.692;2023-05-07T07:13:09;11.60;99.90
3758;DHT22;1894;51.038;13.692;2023-05-07T07:15:36;11.70;99.90
3758;DHT22;1894;51.038;13.692;2023-05-07T07:18:04;11.60;99.90
3758;DHT22;1894;51.038;13.692;2023-05-07T07:20:34;11.70;99.90
3758;DHT22;1894;51.038;13.692;2023-05-07T07:23:02;11.80;99.90
3758;DHT22;1894;51.038;13.692;2023-05-07T07:25:30;11.60;99.90
3758;DHT22;1894;51.038;13.692;2023-05-07T07:27:57;11.70;99.90
3758;DHT22;1894;51.038;13.692;2023-05-07T07:30:26;11.50;99.90
3758;DHT22;1894;51.038;13.692;2023-05-07T07:32:54;11.30;99.90
3758;DHT22;1894;51.038;13.692;2023-05-07T07:35:23;11.30;99.90
3758;DHT22;1894;51.038;13.692;2023-05-07T07:37:52;11.40;99.90
3758;DHT22;1894;51.038;13.692;2023-05-07T07:40:19;11.30;99.90
3758;DHT22;1894;51.038;13.692;2023-05-07T07:42:46;11.10;99.90
3758;DHT22;1894;51.038;13.692;2023-05-07T07:45:14;11.20;99.90
3758;DHT22;1894;51.038;13.692;2023-05-07T07:47:48;11.30;99.90
3758;DHT22;1894;51.038;13.692;2023-05-07T07:50:16;11.40;99.90
3758;DHT22;1894;51.038;13.692;2023-05-07T07:53:05;11.50;99.90
3758;DHT22;1894;51.038;13.692;2023-05-07T07:55:32;11.40;99.90
3758;DHT22;1894;51.038;13.692;2023-05-07T07:58:08;11.50;99.90
3758;DHT22;1894;51.038;13.692;2023-05-07T08:00:36;11.70;99.90
3758;DHT22;1894;51.038;13.692;2023-05-07T08:03:04;11.90;99.90
3758;DHT22;1894;51.038;13.692;2023-05-07T08:05:40;12.10;99.90
3758;DHT22;1894;51.038;13.692;2023-05-07T08:08:08;12.10;99.90
3758;DHT22;1894;51.038;13.692;2023-05-07T08:10:38;11.90;99.90
3758;DHT22;1894;51.038;13.692;2023-05-07T08:13:13;11.80;99.90
3758;DHT22;1894;51.038;13.692;2023-05-07T08:15:41;11.80;99.90
3758;DHT22;1894;51.038;13.692;2023-05-07T08:18:10;11.80;99.90
3758;DHT22;1894;51.038;13.692;2023-05-07T08:20:38;11.90;99.90
3758;DHT22;1894;51.038;13.692;2023-05-07T08:23:09;12.20;99.90
3758;DHT22;1894;51.038;13.692;2023-05-07T08:25:37;12.30;99.90
3758;DHT22;1894;51.038;13.692;2023-05-07T08:28:05;12.30;99.90
3758;DHT22;1894;51.038;13.692;2023-05-07T08:30:36;12.40;99.90
3758;DHT22;1894;51.038;13.692;2023-05-07T08:33:04;12.40;99.90
3758;DHT22;1894;51.038;13.692;2023-05-07T08:35:31;12.20;99.90
3758;DHT22;1894;51.038;13.692;2023-05-07T08:37:58;12.10;99.90
3758;DHT22;1894;51.038;13.692;2023-05-07T08:40:26;12.20;99.90
3758;DHT22;1894;51.038;13.692;2023-05-07T08:42:57;12.30;99.90
3758;DHT22;1894;51.038;13.692;2023-05-07T08:45:26;12.20;99.90
3758;DHT22;1894;51.038;13.692;2023-05-07T08:47:58;12.30;99.90
3758;DHT22;1894;51.038;13.692;2023-05-07T08:50:31;12.30;99.90
3758;DHT22;1894;51.038;13.692;2023-05-07T08:52:59;12.60;99.90
3758;DHT22;1894;51.038;13.692;2023-05-07T08:55:28;12.90;99.90
3758;DHT22;1894;51.038;13.692;2023-05-07T08:57:57;13.10;99.90
3758;DHT22;1894;51.038;13.692;2023-05-07T09:00:24;13.30;99.90
3758;DHT22;1894;51.038;13.692;2023-05-07T09:02:54;13.10;99.90
3758;DHT22;1894;51.038;13.692;2023-05-07T09:05:21;13.10;99.90
3758;DHT22;1894;51.038;13.692;2023-05-07T09:07:49;13.10;99.90
3758;DHT22;1894;51.038;13.692;2023-05-07T09:10:21;13.20;99.90
3758;DHT22;1894;51.038;13.692;2023-05-07T09:12:49;13.40;99.90
3758;DHT22;1894;51.038;13.692;2023-05-07T09:15:18;13.60;99.90
3758;DHT22;1894;51.038;13.692;2023-05-07T09:17:45;13.50;99.90
3758;DHT22;1894;51.038;13.692;2023-05-07T09:20:13;13.40;99.90
3758;DHT22;1894;51.038;13.692;2023-05-07T09:22:41;13.20;99.90
3758;DHT22;1894;51.038;13.692;2023-05-07T09:25:12;13.30;99.90
3758;DHT22;1894;51.038;13.692;2023-05-07T09:27:42;13.70;99.90
3758;DHT22;1894;51.038;13.692;2023-05-07T09:30:10;13.80;99.90
3758;DHT22;1894;51.038;13.692;2023-05-07T09:32:38;13.70;99.90
3758;DHT22;1894;51.038;13.692;2023-05-07T09:35:15;13.60;99.90
3758;DHT22;1894;51.038;13.692;2023-05-07T09:37:49;13.40;99.90
3758;DHT22;1894;51.038;13.692;2023-05-07T09:40:21;13.30;99.90
3758;DHT22;1894;51.038;13.692;2023-05-07T09:42:51;13.40;99.90
3758;DHT22;1894;51.038;13.692;2023-05-07T09:45:29;13.30;99.90
3758;DHT22;1894;51.038;13.692;2023-05-07T09:47:58;13.60;99.90
3758;DHT22;1894;51.038;13.692;2023-05-07T09:50:29;13.60;99.90
3758;DHT22;1894;51.038;13.692;2023-05-07T09:52:59;14.10;99.90
3758;DHT22;1894;51.038;13.692;2023-05-07T09:55:27;14.50;99.90
3758;DHT22;1894;51.038;13.692;2023-05-07T09:57:55;14.10;99.90
3758;DHT22;1894;51.038;13.692;2023-05-07T10:00:27;13.80;99.90
3758;DHT22;1894;51.038;13.692;2023-05-07T10:03:06;14.00;99.90
3758;DHT22;1894;51.038;13.692;2023-05-07T10:05:50;14.60;99.90
3758;DHT22;1894;51.038;13.692;2023-05-07T10:08:20;15.10;99.90
3758;DHT22;1894;51.038;13.692;2023-05-07T10:10:50;14.90;99.90
3758;DHT22;1894;51.038;13.692;2023-05-07T10:13:22;15.10;99.90
3758;DHT22;1894;51.038;13.692;2023-05-07T10:15:53;15.10;99.90
3758;DHT22;1894;51.038;13.692;2023-05-07T10:18:26;15.00;99.90
3758;DHT22;1894;51.038;13.692;2023-05-07T10:21:23;14.90;99.90
3758;DHT22;1894;51.038;13.692;2023-05-07T10:26:39;14.80;99.90
3758;DHT22;1894;51.038;13.692;2023-05-07T10:35:03;15.20;99.90
3758;DHT22;1894;51.038;13.692;2023-05-07T10:37:33;15.20;99.90
3758;DHT22;1894;51.038;13.692;2023-05-07T10:40:01;15.00;99.90
3758;DHT22;1894;51.038;13.692;2023-05-07T10:42:31;14.80;99.90
3758;DHT22;1894;51.038;13.692;2023-05-07T10:45:11;15.00;99.90
3758;DHT22;1894;51.038;13.692;2023-05-07T10:51:21;14.80;99.90
3758;DHT22;1894;51.038;13.692;2023-05-07T10:56:41;14.80;99.90
3758;DHT22;1894;51.038;13.692;2023-05-07T11:01:54;16.00;99.90
3758;DHT22;1894;51.038;13.692;2023-05-07T11:04:37;15.90;99.90
3758;DHT22;1894;51.038;13.692;2023-05-07T11:07:27;15.10;99.90
3758;DHT22;1894;51.038;13.692;2023-05-07T11:10:01;15.10;99.90
3758;DHT22;1894;51.038;13.692;2023-05-07T11:12:55;15.50;99.90
3758;DHT22;1894;51.038;13.692;2023-05-07T11:15:44;15.10;99.90
3758;DHT22;1894;51.038;13.692;2023-05-07T11:18:22;15.10;99.90
3758;DHT22;1894;51.038;13.692;2023-05-07T11:20:58;14.80;99.90
3758;DHT22;1894;51.038;13.692;2023-05-07T11:26:27;14.90;99.90
3758;DHT22;1894;51.038;13.692;2023-05-07T11:28:56;14.40;99.90
3758;DHT22;1894;51.038;13.692;2023-05-07T11:31:27;14.20;99.90
3758;DHT22;1894;51.038;13.692;2023-05-07T11:34:00;14.40;99.90
3758;DHT22;1894;51.038;13.692;2023-05-07T11:36:32;14.50;99.90
3758;DHT22;1894;51.038;13.692;2023-05-07T11:39:03;14.80;99.90
3758;DHT22;1894;51.038;13.692;2023-05-07T11:41:38;15.30;99.90
3758;DHT22;1894;51.038;13.692;2023-05-07T11:44:05;15.50;99.90
3758;DHT22;1894;51.038;13.692;2023-05-07T11:46:35;15.50;99.90
3758;DHT22;1894;51.038;13.692;2023-05-07T11:49:03;16.00;99.90
3758;DHT22;1894;51.038;13.692;2023-05-07T11:51:33;16.10;99.90
3758;DHT22;1894;51.038;13.692;2023-05-07T11:54:03;15.60;99.90
3758;DHT22;1894;51.038;13.692;2023-05-07T11:56:35;15.80;99.90
3758;DHT22;1894;51.038;13.692;2023-05-07T11:59:03;15.90;99.90
3758;DHT22;1894;51.038;13.692;2023-05-07T12:01:31;16.00;99.90
3758;DHT22;1894;51.038;13.692;2023-05-07T12:04:03;16.40;99.90
3758;DHT22;1894;51.038;13.692;2023-05-07T12:06:36;16.10;99.90
3758;DHT22;1894;51.038;13.692;2023-05-07T12:09:04;16.10;99.90
3758;DHT22;1894;51.038;13.692;2023-05-07T12:11:36;16.30;99.90
3758;DHT22;1894;51.038;13.692;2023-05-07T12:14:06;16.00;99.90
3758;DHT22;1894;51.038;13.692;2023-05-07T12:16:42;16.20;99.90
3758;DHT22;1894;51.038;13.692;2023-05-07T12:19:11;16.10;99.90
3758;DHT22;1894;51.038;13.692;2023-05-07T12:21:41;16.00;99.90
3758;DHT22;1894;51.038;13.692;2023-05-07T12:24:09;16.60;99.90
3758;DHT22;1894;51.038;13.692;2023-05-07T12:26:45;16.50;99.90
3758;DHT22;1894;51.038;13.692;2023-05-07T12:29:13;16.30;99.90
3758;DHT22;1894;51.038;13.692;2023-05-07T12:31:46;16.10;99.90
3758;DHT22;1894;51.038;13.692;2023-05-07T12:34:19;16.00;99.90
3758;DHT22;1894;51.038;13.692;2023-05-07T12:37:02;15.40;99.90
3758;DHT22;1894;51.038;13.692;2023-05-07T12:39:30;15.30;99.90
3758;DHT22;1894;51.038;13.692;2023-05-07T12:41:59;15.00;99.90
3758;DHT22;1894;51.038;13.692;2023-05-07T12:44:33;15.20;99.90
3758;DHT22;1894;51.038;13.692;2023-05-07T12:47:04;15.20;99.90
3758;DHT22;1894;51.038;13.692;2023-05-07T12:49:37;15.40;99.90
3758;DHT22;1894;51.038;13.692;2023-05-07T12:52:06;15.40;99.90
3758;DHT22;1894;51.038;13.692;2023-05-07T12:54:36;15.50;99.90
3758;DHT22;1894;51.038;13.692;2023-05-07T12:57:09;15.70;99.90
3758;DHT22;1894;51.038;13.692;2023-05-07T12:59:40;15.50;99.90
3758;DHT22;1894;51.038;13.692;2023-05-07T13:02:10;15.60;99.90
3758;DHT22;1894;51.038;13.692;2023-05-07T13:04:41;16.00;99.90
3758;DHT22;1894;51.038;13.692;2023-05-07T13:07:08;16.40;99.90
3758;DHT22;1894;51.038;13.692;2023-05-07T13:09:35;16.80;99.90
3758;DHT22;1894;51.038;13.692;2023-05-07T13:12:03;17.20;99.90
3758;DHT22;1894;51.038;13.692;2023-05-07T13:14:31;17.00;99.70
3758;DHT22;1894;51.038;13.692;2023-05-07T13:16:59;17.10;99.30
3758;DHT22;1894;51.038;13.692;2023-05-07T13:19:26;17.00;99.40
3758;DHT22;1894;51.038;13.692;2023-05-07T13:21:59;16.30;99.80
3758;DHT22;1894;51.038;13.692;2023-05-07T13:24:26;16.00;99.90
3758;DHT22;1894;51.038;13.692;2023-05-07T13:26:56;15.90;99.90
3758;DHT22;1894;51.038;13.692;2023-05-07T13:29:28;16.00;99.90
3758;DHT22;1894;51.038;13.692;2023-05-07T13:31:57;15.90;99.90
3758;DHT22;1894;51.038;13.692;2023-05-07T13:34:24;15.70;99.90
3758;DHT22;1894;51.038;13.692;2023-05-07T13:36:51;15.90;99.90
3758;DHT22;1894;51.038;13.692;2023-05-07T13:39:18;16.10;99.90
3758;DHT22;1894;51.038;13.692;2023-05-07T13:41:47;16.10;99.90
3758;DHT22;1894;51.038;13.692;2023-05-07T13:44:14;16.40;99.90
3758;DHT22;1894;51.038;13.692;2023-05-07T13:46:41;15.90;99.90
3758;DHT22;1894;51.038;13.692;2023-05-07T13:49:10;16.10;99.90
3758;DHT22;1894;51.038;13.692;2023-05-07T13:51:39;16.20;99.90
3758;DHT22;1894;51.038;13.692;2023-05-07T13:54:08;16.40;99.90
3758;DHT22;1894;51.038;13.692;2023-05-07T13:56:36;16.30;99.90
3758;DHT22;1894;51.038;13.692;2023-05-07T13:59:07;16.20;99.90
3758;DHT22;1894;51.038;13.692;2023-05-07T14:01:35;16.70;99.40
3758;DHT22;1894;51.038;13.692;2023-05-07T14:04:02;16.80;99.40
3758;DHT22;1894;51.038;13.692;2023-05-07T14:06:29;16.60;98.60
3758;DHT22;1894;51.038;13.692;2023-05-07T14:08:56;16.80;98.70
3758;DHT22;1894;51.038;13.692;2023-05-07T14:11:24;17.00;98.90
3758;DHT22;1894;51.038;13.692;2023-05-07T14:13:52;16.60;99.10
3758;DHT22;1894;51.038;13.692;2023-05-07T14:16:20;16.70;99.30
3758;DHT22;1894;51.038;13.692;2023-05-07T14:18:48;16.30;99.10
3758;DHT22;1894;51.038;13.692;2023-05-07T14:21:15;15.80;99.80
3758;DHT22;1894;51.038;13.692;2023-05-07T14:23:42;15.90;99.60
3758;DHT22;1894;51.038;13.692;2023-05-07T14:26:12;16.20;99.70
3758;DHT22;1894;51.038;13.692;2023-05-07T14:28:39;16.40;99.60
3758;DHT22;1894;51.038;13.692;2023-05-07T14:31:08;16.20;98.80
3758;DHT22;1894;51.038;13.692;2023-05-07T14:33:38;16.00;99.10
3758;DHT22;1894;51.038;13.692;2023-05-07T14:36:08;15.80;99.80
3758;DHT22;1894;51.038;13.692;2023-05-07T14:38:35;15.70;99.90
3758;DHT22;1894;51.038;13.692;2023-05-07T14:41:02;15.90;99.80
3758;DHT22;1894;51.038;13.692;2023-05-07T14:43:30;16.30;99.40
3758;DHT22;1894;51.038;13.692;2023-05-07T14:45:57;16.50;99.20
3758;DHT22;1894;51.038;13.692;2023-05-07T14:48:25;17.20;98.20
3758;DHT22;1894;51.038;13.692;2023-05-07T14:50:55;17.70;96.60
3758;DHT22;1894;51.038;13.692;2023-05-07T14:53:23;18.20;96.30
3758;DHT22;1894;51.038;13.692;2023-05-07T14:55:50;20.10;92.20
3758;DHT22;1894;51.038;13.692;2023-05-07T14:58:17;20.40;91.10
3758;DHT22;1894;51.038;13.692;2023-05-07T15:00:44;20.60;90.90
3758;DHT22;1894;51.038;13.692;2023-05-07T15:03:12;20.30;88.20
3758;DHT22;1894;51.038;13.692;2023-05-07T15:05:42;19.30;91.20
3758;DHT22;1894;51.038;13.692;2023-05-07T15:08:09;18.30;92.30
3758;DHT22;1894;51.038;13.692;2023-05-07T15:10:37;17.60;93.90
3758;DHT22;1894;51.038;13.692;2023-05-07T15:13:09;18.10;93.40
3758;DHT22;1894;51.038;13.692;2023-05-07T15:15:42;17.80;94.00
3758;DHT22;1894;51.038;13.692;2023-05-07T15:18:12;16.70;94.40
3758;DHT22;1894;51.038;13.692;2023-05-07T15:20:40;16.40;95.70
3758;DHT22;1894;51.038;13.692;2023-05-07T15:23:08;16.70;95.90
3758;DHT22;1894;51.038;13.692;2023-05-07T15:25:45;16.90;95.50
3758;DHT22;1894;51.038;13.692;2023-05-07T15:28:15;17.10;95.00
3758;DHT22;1894;51.038;13.692;2023-05-07T15:30:46;16.80;95.40
3758;DHT22;1894;51.038;13.692;2023-05-07T15:33:13;16.50;95.60
3758;DHT22;1894;51.038;13.692;2023-05-07T15:35:41;16.50;95.70
3758;DHT22;1894;51.038;13.692;2023-05-07T15:38:08;16.40;96.40
3758;DHT22;1894;51.038;13.692;2023-05-07T15:40:35;16.00;96.90
3758;DHT22;1894;51.038;13.692;2023-05-07T15:43:09;15.70;97.80
3758;DHT22;1894;51.038;13.692;2023-05-07T15:45:41;15.90;97.60
3758;DHT22;1894;51.038;13.692;2023-05-07T15:48:10;15.50;98.30
3758;DHT22;1894;51.038;13.692;2023-05-07T15:50:37;16.00;98.30
3758;DHT22;1894;51.038;13.692;2023-05-07T15:53:05;15.80;97.40
3758;DHT22;1894;51.038;13.692;2023-05-07T15:55:32;16.00;96.90
3758;DHT22;1894;51.038;13.692;2023-05-07T15:58:00;15.90;97.00
3758;DHT22;1894;51.038;13.692;2023-05-07T16:00:27;15.70;97.60
3758;DHT22;1894;51.038;13.692;2023-05-07T16:02:54;15.30;98.40
3758;DHT22;1894;51.038;13.692;2023-05-07T16:05:22;15.10;99.10
3758;DHT22;1894;51.038;13.692;2023-05-07T16:07:50;15.20;98.80
3758;DHT22;1894;51.038;13.692;2023-05-07T16:10:17;15.10;99.80
3758;DHT22;1894;51.038;13.692;2023-05-07T16:12:44;14.90;99.90
3758;DHT22;1894;51.038;13.692;2023-05-07T16:15:12;14.80;99.90
3758;DHT22;1894;51.038;13.692;2023-05-07T16:17:40;14.70;99.90
3758;DHT22;1894;51.038;13.692;2023-05-07T16:20:08;15.00;99.90